Time;durP1;ratioP1;P1;durP2;ratioP2;P2;SDS_P1;SDS_P2;PMS_P1;PMS_P2;Temp;Humidity;BMP_temperature;BMP_pressure;BME280_temperature;BME280_humidity;BME280_pressure;Samples;Min_cycle;Max_cycle;Signal;HPM_P1;HPM_P2
2023/12/13 00:01:35;;;;;;;40.65;14.38;;;7.90;99.90;;;;;;4116372;28;20054;-81
2023/12/13 00:03:36;;;;;;;40.83;13.50;;;7.30;99.90;;;;;;4115196;28;20042;-80
2023/12/13 00:05:36;;;;;;;43.03;14.82;;;7.50;99.90;;;;;;4116010;28;20121;-80
2023/12/13 00:07:38;;;;;;;39.08;14.48;;;7.80;99.90;;;;;;4115943;28;20130;-80
2023/12/13 00:09:40;;;;;;;37.33;14.63;;;7.30;99.90;;;;;;4121331;28;20043;-80
2023/12/13 00:11:40;;;;;;;41.30;15.13;;;7.40;99.90;;;;;;4115922;28;20047;-80
2023/12/13 00:13:41;;;;;;;40.15;15.10;;;7.40;99.90;;;;;;4112706;28;20471;-80
2023/12/13 00:15:43;;;;;;;39.08;14.00;;;7.30;99.90;;;;;;4115474;28;20454;-79
2023/12/13 00:17:43;;;;;;;39.35;14.48;;;7.60;99.90;;;;;;4130448;28;20128;-80
2023/12/13 00:19:44;;;;;;;37.42;13.93;;;8.00;99.90;;;;;;4128235;28;20129;-80
2023/12/13 00:21:45;;;;;;;37.90;13.85;;;7.30;99.90;;;;;;4117675;28;20093;-79
2023/12/13 00:23:46;;;;;;;31.95;13.32;;;7.80;99.90;;;;;;4115607;28;20451;-80
2023/12/13 00:25:47;;;;;;;31.60;13.65;;;7.40;99.90;;;;;;4115078;28;20090;-80
2023/12/13 00:27:51;;;;;;;30.98;12.75;;;7.70;99.90;;;;;;4115934;28;20476;-80
2023/12/13 00:29:52;;;;;;;35.03;13.13;;;7.70;99.90;;;;;;4115438;28;20050;-79
2023/12/13 00:31:52;;;;;;;43.92;13.15;;;7.60;99.90;;;;;;4115353;28;20141;-79
2023/12/13 00:33:53;;;;;;;40.20;13.18;;;7.40;99.90;;;;;;4120218;28;20498;-80
2023/12/13 00:35:54;;;;;;;31.50;12.88;;;7.40;99.90;;;;;;4132084;28;20047;-79
2023/12/13 00:37:54;;;;;;;30.85;12.77;;;7.30;99.90;;;;;;4131381;28;20057;-80
2023/12/13 00:39:55;;;;;;;33.72;12.10;;;7.50;99.90;;;;;;4116492;28;20048;-79
2023/12/13 00:41:56;;;;;;;36.95;12.15;;;7.40;99.90;;;;;;4125184;28;20050;-80
2023/12/13 00:43:57;;;;;;;35.00;11.65;;;7.40;99.90;;;;;;4122060;28;20042;-80
2023/12/13 00:45:59;;;;;;;31.92;12.07;;;8.10;99.90;;;;;;4134014;28;20093;-80
2023/12/13 00:48:00;;;;;;;31.50;12.43;;;7.60;99.90;;;;;;4134841;28;20050;-80
2023/12/13 00:50:01;;;;;;;38.13;12.40;;;7.40;99.90;;;;;;4127933;28;20035;-80
2023/12/13 00:52:02;;;;;;;26.38;11.30;;;8.00;99.90;;;;;;4119033;28;20050;-80
2023/12/13 00:54:03;;;;;;;35.72;11.10;;;7.40;99.90;;;;;;4121438;28;20049;-80
2023/12/13 00:56:04;;;;;;;30.90;10.82;;;7.40;99.90;;;;;;4131774;28;20479;-80
2023/12/13 00:58:05;;;;;;;31.75;11.93;;;7.40;99.90;;;;;;4130194;28;20395;-80
2023/12/13 01:00:07;;;;;;;27.50;10.60;;;7.40;99.90;;;;;;4131835;28;20053;-80
2023/12/13 01:02:07;;;;;;;26.27;10.23;;;7.40;99.90;;;;;;4130531;28;20050;-80
2023/12/13 01:04:08;;;;;;;30.27;10.73;;;7.80;99.90;;;;;;4130060;28;20092;-80
2023/12/13 01:06:09;;;;;;;24.60;9.52;;;7.70;99.90;;;;;;4124558;28;20081;-80
2023/12/13 01:08:10;;;;;;;23.17;9.27;;;7.40;99.90;;;;;;4115562;28;20086;-80
2023/12/13 01:10:12;;;;;;;28.88;10.23;;;7.40;99.90;;;;;;4116145;28;20093;-80
2023/12/13 01:12:13;;;;;;;26.48;9.95;;;7.40;99.90;;;;;;4118087;28;20519;-80
2023/12/13 01:14:13;;;;;;;21.10;9.07;;;7.40;99.90;;;;;;4115287;28;20137;-80
2023/12/13 01:16:15;;;;;;;19.67;8.38;;;7.40;99.90;;;;;;4113116;28;20051;-80
2023/12/13 01:18:15;;;;;;;22.63;8.85;;;7.70;99.90;;;;;;4115708;28;20047;-80
2023/12/13 01:20:16;;;;;;;18.77;7.82;;;7.40;99.90;;;;;;4114234;28;20451;-80
2023/12/13 01:22:19;;;;;;;20.73;8.55;;;7.30;99.90;;;;;;4123397;28;20046;-80
2023/12/13 01:24:19;;;;;;;24.08;8.57;;;7.80;99.90;;;;;;4131762;28;20380;-80
2023/12/13 01:26:20;;;;;;;21.95;8.35;;;7.80;99.90;;;;;;4134267;28;20131;-80
2023/12/13 01:28:20;;;;;;;21.65;8.18;;;7.70;99.90;;;;;;4134758;28;20113;-80
2023/12/13 01:30:21;;;;;;;22.58;9.07;;;7.70;99.90;;;;;;4124587;28;20038;-80
2023/12/13 01:32:22;;;;;;;20.55;8.43;;;7.40;99.90;;;;;;4127367;28;20047;-80
2023/12/13 01:34:22;;;;;;;21.17;7.95;;;7.50;99.90;;;;;;4135303;28;20057;-80
2023/12/13 01:36:23;;;;;;;22.23;8.65;;;7.40;99.90;;;;;;4124458;28;20038;-80
2023/12/13 01:38:24;;;;;;;22.88;8.70;;;7.70;99.90;;;;;;4119084;28;20469;-80
2023/12/13 01:40:24;;;;;;;26.88;9.93;;;7.50;99.90;;;;;;4118324;28;20070;-80
2023/12/13 01:42:25;;;;;;;29.20;9.50;;;7.40;99.90;;;;;;4127677;28;20546;-80
2023/12/13 01:44:25;;;;;;;25.88;8.85;;;7.40;99.90;;;;;;4134474;28;20046;-80
2023/12/13 01:46:26;;;;;;;29.20;9.75;;;7.40;99.90;;;;;;4134228;28;20047;-80
2023/12/13 01:48:27;;;;;;;26.88;9.70;;;7.70;99.90;;;;;;4134497;28;20042;-80
2023/12/13 01:50:29;;;;;;;32.28;10.57;;;7.40;99.90;;;;;;4134378;28;20049;-80
2023/12/13 01:52:30;;;;;;;32.25;10.30;;;7.40;99.90;;;;;;4134576;28;20530;-80
2023/12/13 01:54:31;;;;;;;34.83;11.77;;;7.60;99.90;;;;;;4133579;28;20049;-80
2023/12/13 01:56:32;;;;;;;35.83;10.68;;;7.40;99.90;;;;;;4134156;28;20042;-80
2023/12/13 01:58:38;;;;;;;28.88;10.88;;;7.80;99.90;;;;;;4127408;28;20039;-80
2023/12/13 02:00:43;;;;;;;31.70;11.82;;;7.40;99.90;;;;;;4118017;28;20062;-80
2023/12/13 02:02:45;;;;;;;35.42;11.15;;;7.40;99.90;;;;;;4117611;28;20083;-80
2023/12/13 02:04:47;;;;;;;32.67;12.23;;;7.60;99.90;;;;;;4126292;28;20046;-80
2023/12/13 02:06:47;;;;;;;30.15;10.65;;;7.40;99.90;;;;;;4117752;28;20495;-80
2023/12/13 02:08:48;;;;;;;33.00;11.32;;;7.90;99.90;;;;;;4118347;28;20141;-80
2023/12/13 02:10:49;;;;;;;31.00;11.20;;;7.40;99.90;;;;;;4118104;28;20820;-80
2023/12/13 02:12:51;;;;;;;32.42;11.57;;;7.30;99.90;;;;;;4118473;28;20050;-81
2023/12/13 02:14:52;;;;;;;38.63;12.02;;;7.40;99.90;;;;;;4117595;28;20471;-80
2023/12/13 02:16:53;;;;;;;39.45;11.82;;;7.40;99.90;;;;;;4127348;28;20111;-80
2023/12/13 02:18:53;;;;;;;39.67;12.60;;;7.40;99.90;;;;;;4133822;28;20487;-80
2023/12/13 02:20:54;;;;;;;42.00;12.60;;;7.40;99.90;;;;;;4118323;28;20167;-80
2023/12/13 02:22:55;;;;;;;36.08;11.20;;;7.40;99.90;;;;;;4117839;28;20097;-80
2023/12/13 02:24:58;;;;;;;43.47;12.63;;;7.40;99.90;;;;;;4116904;28;20451;-80
2023/12/13 02:26:59;;;;;;;42.80;13.15;;;7.50;99.90;;;;;;4117944;28;20415;-80
2023/12/13 02:29:00;;;;;;;40.30;12.70;;;7.40;99.90;;;;;;4118154;28;20047;-80
2023/12/13 02:31:03;;;;;;;33.72;12.43;;;8.00;99.90;;;;;;4118039;28;20050;-80
2023/12/13 02:33:03;;;;;;;33.63;13.27;;;7.50;99.90;;;;;;4118563;28;20470;-80
2023/12/13 02:35:04;;;;;;;36.50;11.25;;;7.90;99.90;;;;;;4118311;28;20043;-80
2023/12/13 02:37:06;;;;;;;46.05;12.70;;;7.40;99.90;;;;;;4115699;28;20376;-80
2023/12/13 02:39:07;;;;;;;37.40;13.10;;;7.50;99.90;;;;;;4117340;28;20039;-80
2023/12/13 02:41:08;;;;;;;38.67;13.20;;;7.50;99.90;;;;;;4116427;28;20102;-81
2023/12/13 02:43:09;;;;;;;37.60;12.18;;;7.50;99.90;;;;;;4117424;28;20043;-81
2023/12/13 02:45:12;;;;;;;39.95;12.18;;;7.40;99.90;;;;;;4117947;28;20100;-81
2023/12/13 02:47:12;;;;;;;46.00;12.50;;;7.50;99.90;;;;;;4117542;28;20047;-81
2023/12/13 02:49:14;;;;;;;41.58;12.60;;;7.50;99.90;;;;;;4116257;28;20042;-80
2023/12/13 02:51:15;;;;;;;42.63;11.73;;;8.00;99.90;;;;;;4117165;28;20476;-80
2023/12/13 02:53:15;;;;;;;36.38;12.75;;;7.50;99.90;;;;;;4122558;28;20030;-80
2023/12/13 02:55:16;;;;;;;39.97;12.07;;;7.50;99.90;;;;;;4132021;28;20046;-80
2023/12/13 02:57:17;;;;;;;39.53;11.65;;;7.50;99.90;;;;;;4118507;28;20051;-80
2023/12/13 02:59:17;;;;;;;30.52;11.88;;;7.60;99.90;;;;;;4130413;28;20061;-81
2023/12/13 03:01:19;;;;;;;40.92;12.30;;;7.50;99.90;;;;;;4134724;28;20080;-81
2023/12/13 03:03:19;;;;;;;39.95;11.90;;;7.90;99.90;;;;;;4134456;28;20054;-81
2023/12/13 03:05:20;;;;;;;51.38;12.98;;;8.20;99.90;;;;;;4133632;28;20038;-81
2023/12/13 03:07:23;;;;;;;34.55;12.57;;;7.50;99.90;;;;;;4132863;28;20050;-81
2023/12/13 03:09:26;;;;;;;42.17;14.52;;;7.50;99.90;;;;;;4133734;28;20042;-80
2023/12/13 03:11:28;;;;;;;43.25;13.90;;;7.50;99.90;;;;;;4130363;28;20046;-80
2023/12/13 03:13:28;;;;;;;40.92;12.50;;;7.50;99.90;;;;;;4133912;28;20046;-79
2023/12/13 03:15:29;;;;;;;42.20;12.90;;;7.50;99.90;;;;;;4133707;28;20058;-79
2023/12/13 03:17:30;;;;;;;41.60;12.88;;;7.80;99.90;;;;;;4133949;28;20050;-80
2023/12/13 03:19:31;;;;;;;38.70;12.98;;;7.80;99.90;;;;;;4133482;28;20038;-79
2023/12/13 03:21:32;;;;;;;39.38;13.15;;;7.50;99.90;;;;;;4117978;28;20061;-80
2023/12/13 03:23:32;;;;;;;43.35;13.05;;;7.50;99.90;;;;;;4116905;28;20415;-80
2023/12/13 03:25:33;;;;;;;39.90;12.80;;;7.60;99.90;;;;;;4117219;28;20050;-80
2023/12/13 03:27:35;;;;;;;41.40;11.73;;;7.70;99.90;;;;;;4117727;28;20054;-80
2023/12/13 03:29:37;;;;;;;37.10;12.98;;;7.60;99.90;;;;;;4126412;28;20045;-80
2023/12/13 03:31:38;;;;;;;42.70;12.60;;;7.80;99.90;;;;;;4135026;28;20042;-80
2023/12/13 03:33:38;;;;;;;38.03;11.95;;;7.50;99.90;;;;;;4151132;28;20027;-80
2023/12/13 03:35:39;;;;;;;40.30;12.93;;;7.50;99.90;;;;;;4132410;28;20117;-80
2023/12/13 03:37:40;;;;;;;50.40;13.45;;;7.50;99.90;;;;;;4134070;28;20120;-80
2023/12/13 03:39:41;;;;;;;38.58;13.98;;;7.40;99.90;;;;;;4136109;28;20046;-80
2023/12/13 03:41:41;;;;;;;35.58;12.27;;;7.60;99.90;;;;;;4139342;28;20515;-80
2023/12/13 03:43:42;;;;;;;38.35;13.23;;;7.50;99.90;;;;;;4122852;28;20055;-80
2023/12/13 03:45:42;;;;;;;43.38;12.48;;;7.50;99.90;;;;;;4121590;28;20046;-80
2023/12/13 03:47:43;;;;;;;38.88;12.60;;;7.60;99.90;;;;;;4107301;28;20047;-80
2023/12/13 03:49:44;;;;;;;38.10;12.93;;;7.80;99.90;;;;;;4105035;28;20051;-81
2023/12/13 03:51:47;;;;;;;38.33;12.90;;;7.90;99.90;;;;;;4118338;28;20475;-81
2023/12/13 03:53:47;;;;;;;38.75;12.75;;;7.90;99.90;;;;;;4119469;28;20051;-81
2023/12/13 03:55:48;;;;;;;35.10;11.68;;;7.50;99.90;;;;;;4115282;28;20395;-81
2023/12/13 03:57:49;;;;;;;37.58;12.65;;;7.50;99.90;;;;;;4116316;28;20103;-81
2023/12/13 03:59:49;;;;;;;37.28;12.80;;;7.90;99.90;;;;;;4116416;28;20043;-79
2023/12/13 04:01:50;;;;;;;38.25;11.65;;;7.50;99.90;;;;;;4115901;28;20042;-80
2023/12/13 04:03:51;;;;;;;39.08;11.80;;;8.00;99.90;;;;;;4123893;28;20380;-80
2023/12/13 04:05:51;;;;;;;41.65;12.55;;;8.00;99.90;;;;;;4116836;28;20169;-79
2023/12/13 04:07:52;;;;;;;43.10;12.45;;;7.50;99.90;;;;;;4118822;28;20055;-80
2023/12/13 04:09:53;;;;;;;39.25;11.82;;;8.00;99.90;;;;;;4133332;28;20050;-79
2023/12/13 04:11:53;;;;;;;38.25;12.57;;;7.50;99.90;;;;;;4132649;28;20104;-79
2023/12/13 04:13:54;;;;;;;37.88;12.43;;;7.50;99.90;;;;;;4132844;28;20046;-79
2023/12/13 04:15:54;;;;;;;41.03;12.20;;;7.50;99.90;;;;;;4131848;28;20108;-81
2023/12/13 04:17:55;;;;;;;37.67;11.93;;;7.80;99.90;;;;;;4133069;28;20038;-82
2023/12/13 04:19:58;;;;;;;36.72;12.70;;;7.90;99.90;;;;;;4131702;28;20047;-81
2023/12/13 04:21:59;;;;;;;34.13;11.63;;;8.00;99.90;;;;;;4116521;28;20098;-81
2023/12/13 04:24:02;;;;;;;43.80;12.38;;;7.90;99.90;;;;;;4116770;28;20050;-82
2023/12/13 04:26:02;;;;;;;38.00;13.55;;;7.90;99.90;;;;;;4116737;28;20055;-81
2023/12/13 04:28:03;;;;;;;36.97;12.50;;;7.50;99.90;;;;;;4125642;28;20494;-81
2023/12/13 04:30:05;;;;;;;35.92;11.35;;;7.90;99.90;;;;;;4120705;28;20105;-82
2023/12/13 04:32:07;;;;;;;34.08;12.25;;;7.50;99.90;;;;;;4116870;28;20530;-82
2023/12/13 04:34:07;;;;;;;44.35;13.40;;;7.50;99.90;;;;;;4116536;28;20043;-81
2023/12/13 04:36:09;;;;;;;34.15;11.25;;;7.50;99.90;;;;;;4116166;28;20476;-82
2023/12/13 04:38:10;;;;;;;30.13;10.57;;;7.50;99.90;;;;;;4116677;28;20504;-82
2023/12/13 04:40:11;;;;;;;36.78;11.38;;;7.50;99.90;;;;;;4116463;28;20109;-82
2023/12/13 04:42:12;;;;;;;44.28;12.32;;;7.50;99.90;;;;;;4115980;28;20050;-82
2023/12/13 04:44:13;;;;;;;31.58;11.30;;;7.70;99.90;;;;;;4116361;28;20050;-82
2023/12/13 04:46:15;;;;;;;32.97;11.45;;;7.90;99.90;;;;;;4119993;28;20049;-82
2023/12/13 04:48:16;;;;;;;32.88;10.93;;;7.50;99.90;;;;;;4130157;28;20129;-81
2023/12/13 04:50:17;;;;;;;32.08;10.98;;;7.50;99.90;;;;;;4116750;28;20054;-81
2023/12/13 04:52:18;;;;;;;33.45;10.55;;;7.50;99.90;;;;;;4116599;28;20035;-81
2023/12/13 04:54:21;;;;;;;38.50;12.50;;;7.50;99.90;;;;;;4116495;28;20046;-81
2023/12/13 04:56:22;;;;;;;39.08;11.57;;;7.50;99.90;;;;;;4119593;28;20042;-81
2023/12/13 04:58:23;;;;;;;34.55;12.45;;;7.60;99.90;;;;;;4105386;28;20543;-81
2023/12/13 05:00:23;;;;;;;32.42;10.98;;;7.60;99.90;;;;;;4117492;28;20125;-81
2023/12/13 05:02:24;;;;;;;31.98;11.63;;;7.50;99.90;;;;;;4120129;28;20057;-82
2023/12/13 05:04:25;;;;;;;34.67;11.45;;;7.50;99.90;;;;;;4119488;28;20050;-82
2023/12/13 05:06:25;;;;;;;34.45;11.90;;;7.60;99.90;;;;;;4118005;28;20042;-81
2023/12/13 05:08:26;;;;;;;30.95;10.93;;;7.50;99.90;;;;;;4119610;28;20039;-82
2023/12/13 05:10:27;;;;;;;30.10;10.45;;;7.60;99.90;;;;;;4120062;28;20598;-81
2023/12/13 05:12:27;;;;;;;28.45;10.55;;;7.50;99.90;;;;;;4119586;28;20057;-81
2023/12/13 05:14:28;;;;;;;31.00;10.45;;;7.50;99.90;;;;;;4119230;28;20113;-81
2023/12/13 05:16:29;;;;;;;32.70;10.45;;;7.50;99.90;;;;;;4119093;28;20050;-81
2023/12/13 05:18:30;;;;;;;33.97;11.15;;;7.60;99.90;;;;;;4118949;28;20498;-81
2023/12/13 05:20:31;;;;;;;34.22;11.00;;;8.00;99.90;;;;;;4121807;28;20038;-81
2023/12/13 05:22:31;;;;;;;36.55;10.50;;;7.50;99.90;;;;;;4134732;28;20050;-81
2023/12/13 05:24:33;;;;;;;27.60;10.52;;;7.50;99.90;;;;;;4134960;28;20454;-82
2023/12/13 05:26:34;;;;;;;34.90;12.77;;;7.60;99.90;;;;;;4134867;28;20110;-81
2023/12/13 05:28:35;;;;;;;30.33;10.30;;;7.60;99.90;;;;;;4132451;28;20066;-81
2023/12/13 05:30:35;;;;;;;31.42;11.18;;;7.60;99.90;;;;;;4118497;28;20526;-81
2023/12/13 05:32:36;;;;;;;32.90;10.68;;;7.80;99.90;;;;;;4118700;28;20046;-81
2023/12/13 05:34:37;;;;;;;37.58;10.80;;;8.00;99.90;;;;;;4117819;28;20046;-81
2023/12/13 05:36:39;;;;;;;29.80;10.65;;;7.50;99.90;;;;;;4118933;28;20039;-81
2023/12/13 05:38:41;;;;;;;29.08;10.00;;;7.60;99.90;;;;;;4118701;28;20089;-81
2023/12/13 05:40:42;;;;;;;28.50;10.35;;;7.50;99.90;;;;;;4120552;28;20046;-80
2023/12/13 05:42:42;;;;;;;32.78;11.00;;;7.70;99.90;;;;;;4127391;28;20050;-80
2023/12/13 05:44:43;;;;;;;34.58;10.18;;;7.60;99.90;;;;;;4116692;28;20517;-79
2023/12/13 05:46:45;;;;;;;33.10;10.57;;;7.50;99.90;;;;;;4117513;28;20045;-80
2023/12/13 05:48:45;;;;;;;33.55;11.25;;;7.50;99.90;;;;;;4122729;28;20042;-80
2023/12/13 05:50:46;;;;;;;26.48;10.15;;;7.80;99.90;;;;;;4118574;28;20483;-81
2023/12/13 05:52:46;;;;;;;29.65;10.40;;;7.90;99.90;;;;;;4117412;28;20064;-81
2023/12/13 05:54:47;;;;;;;27.02;10.43;;;7.90;99.90;;;;;;4118145;28;20046;-80
2023/12/13 05:56:48;;;;;;;28.60;10.55;;;7.50;99.90;;;;;;4118195;28;20087;-80
2023/12/13 05:58:48;;;;;;;26.60;10.48;;;7.60;99.90;;;;;;4117974;28;20046;-81
2023/12/13 06:00:50;;;;;;;36.67;11.30;;;7.50;99.90;;;;;;4116609;28;20403;-80
2023/12/13 06:02:50;;;;;;;34.28;11.48;;;8.10;99.90;;;;;;4118153;28;20047;-80
2023/12/13 06:04:52;;;;;;;33.55;10.98;;;7.50;99.90;;;;;;4117230;28;20101;-81
2023/12/13 06:06:54;;;;;;;33.75;10.27;;;7.50;99.90;;;;;;4116470;28;20454;-81
2023/12/13 06:08:54;;;;;;;32.03;11.15;;;7.50;99.90;;;;;;4116311;28;20491;-80
2023/12/13 06:10:58;;;;;;;37.28;11.60;;;7.60;99.90;;;;;;4119060;28;20047;-81
2023/12/13 06:12:58;;;;;;;30.90;10.70;;;7.50;99.90;;;;;;4132929;28;20038;-81
2023/12/13 06:14:59;;;;;;;33.95;11.93;;;7.90;99.90;;;;;;4116710;28;20109;-81
2023/12/13 06:17:00;;;;;;;36.22;12.00;;;7.60;99.90;;;;;;4118141;28;20042;-81
2023/12/13 06:19:01;;;;;;;25.90;9.60;;;8.00;99.90;;;;;;4117341;28;20075;-81
2023/12/13 06:21:02;;;;;;;34.05;10.90;;;7.50;99.90;;;;;;4116082;28;20554;-81
2023/12/13 06:23:03;;;;;;;25.42;10.20;;;7.50;99.90;;;;;;4117353;28;20125;-81
2023/12/13 06:25:04;;;;;;;27.80;10.07;;;7.50;99.90;;;;;;4120071;28;20042;-81
2023/12/13 06:27:04;;;;;;;30.08;10.18;;;7.50;99.90;;;;;;4101428;28;20123;-81
2023/12/13 06:29:06;;;;;;;29.48;10.70;;;7.70;99.90;;;;;;4105501;28;20083;-81
2023/12/13 06:31:07;;;;;;;29.88;10.15;;;7.50;99.90;;;;;;4117867;28;20508;-81
2023/12/13 06:33:07;;;;;;;27.30;10.65;;;7.50;99.90;;;;;;4117830;28;20039;-81
2023/12/13 06:35:08;;;;;;;30.38;10.18;;;7.50;99.90;;;;;;4117209;28;20058;-81
2023/12/13 06:37:08;;;;;;;32.65;11.55;;;7.50;99.90;;;;;;4131062;28;20454;-81
2023/12/13 06:39:11;;;;;;;31.02;10.88;;;7.60;99.90;;;;;;4125249;28;20042;-81
2023/12/13 06:41:12;;;;;;;31.65;10.38;;;7.90;99.90;;;;;;4117748;28;20527;-81
2023/12/13 06:43:13;;;;;;;26.98;9.80;;;7.50;99.90;;;;;;4117359;28;20476;-81
2023/12/13 06:45:14;;;;;;;30.00;10.85;;;7.50;99.90;;;;;;4115246;28;20052;-81
2023/12/13 06:47:15;;;;;;;30.33;9.50;;;7.50;99.90;;;;;;4115602;28;20117;-81
2023/12/13 06:49:17;;;;;;;34.20;10.10;;;7.90;99.90;;;;;;4130451;28;20120;-81
2023/12/13 06:51:19;;;;;;;33.30;10.82;;;8.00;99.90;;;;;;4123793;28;20117;-81
2023/12/13 06:53:21;;;;;;;32.38;10.88;;;7.50;99.90;;;;;;4116959;28;20091;-80
2023/12/13 06:55:22;;;;;;;29.95;10.80;;;7.70;99.90;;;;;;4116870;28;20050;-80
2023/12/13 06:57:23;;;;;;;32.67;10.32;;;7.50;99.90;;;;;;4116273;28;20043;-80
2023/12/13 06:59:24;;;;;;;31.60;11.40;;;7.60;99.90;;;;;;4116728;28;20054;-81
2023/12/13 07:01:24;;;;;;;32.83;10.68;;;7.50;99.90;;;;;;4116399;28;20485;-80
2023/12/13 07:03:25;;;;;;;34.30;11.70;;;7.50;99.90;;;;;;4116283;28;20042;-80
2023/12/13 07:05:27;;;;;;;25.83;9.73;;;7.80;99.90;;;;;;4114881;28;20070;-81
2023/12/13 07:07:27;;;;;;;28.48;11.43;;;7.50;99.90;;;;;;4146453;28;20057;-81
2023/12/13 07:09:29;;;;;;;29.73;11.10;;;7.60;99.90;;;;;;4132222;28;20051;-81
2023/12/13 07:11:29;;;;;;;33.13;10.45;;;7.50;99.90;;;;;;4132490;28;20527;-81
2023/12/13 07:13:30;;;;;;;31.17;11.00;;;7.70;99.90;;;;;;4132728;28;20108;-81
2023/12/13 07:15:31;;;;;;;28.48;10.30;;;7.60;99.90;;;;;;4131026;28;20562;-80
2023/12/13 07:17:32;;;;;;;26.48;10.15;;;7.50;99.90;;;;;;4132142;28;20109;-81
2023/12/13 07:19:34;;;;;;;29.38;10.88;;;8.00;99.90;;;;;;4132816;28;20509;-79
2023/12/13 07:21:35;;;;;;;32.45;11.60;;;7.80;99.90;;;;;;4119630;28;20038;-82
2023/12/13 07:23:36;;;;;;;31.17;11.80;;;7.70;99.90;;;;;;4117142;28;21597;-80
2023/12/13 07:25:37;;;;;;;31.17;10.38;;;8.00;99.90;;;;;;4118147;28;20047;-80
2023/12/13 07:27:37;;;;;;;30.58;11.50;;;7.90;99.90;;;;;;4115342;28;20051;-80
2023/12/13 07:29:42;;;;;;;29.20;10.90;;;7.50;99.90;;;;;;4116793;28;20051;-80
2023/12/13 07:31:42;;;;;;;34.28;11.57;;;7.60;99.90;;;;;;4115486;28;20051;-79
2023/12/13 07:33:43;;;;;;;26.88;9.90;;;7.60;99.90;;;;;;4116268;28;20045;-79
2023/12/13 07:35:47;;;;;;;26.40;10.35;;;7.90;99.90;;;;;;4125249;28;20046;-80
2023/12/13 07:37:48;;;;;;;33.22;11.07;;;7.70;99.90;;;;;;4132243;28;20499;-80
2023/12/13 07:39:49;;;;;;;32.20;11.30;;;7.90;99.90;;;;;;4125800;28;20563;-80
2023/12/13 07:41:50;;;;;;;25.40;10.45;;;8.10;99.90;;;;;;4115731;28;20057;-79
2023/12/13 07:43:50;;;;;;;26.88;10.57;;;7.60;99.90;;;;;;4116631;28;20047;-79
2023/12/13 07:45:51;;;;;;;29.50;11.13;;;7.60;99.90;;;;;;4115775;28;20057;-81
2023/12/13 07:47:52;;;;;;;26.23;10.68;;;8.00;99.90;;;;;;4116356;28;20050;-81
2023/12/13 07:49:53;;;;;;;30.45;11.43;;;7.70;99.90;;;;;;4116535;28;20459;-80
2023/12/13 07:51:55;;;;;;;28.17;10.65;;;7.60;99.90;;;;;;4115947;28;20516;-79
2023/12/13 07:53:57;;;;;;;29.67;11.50;;;7.60;99.90;;;;;;4116394;28;20377;-81
2023/12/13 07:55:57;;;;;;;32.55;11.10;;;7.70;99.90;;;;;;4115015;28;20411;-80
2023/12/13 07:57:58;;;;;;;29.60;11.02;;;7.70;99.90;;;;;;4115722;28;20049;-80
2023/12/13 08:00:00;;;;;;;25.13;10.50;;;8.20;99.90;;;;;;4116031;28;20549;-80
2023/12/13 08:02:01;;;;;;;29.63;11.05;;;7.50;99.90;;;;;;4116237;28;20054;-80
2023/12/13 08:04:02;;;;;;;27.27;10.35;;;8.30;99.90;;;;;;4115778;28;20069;-80
2023/12/13 08:06:15;;;;;;;31.15;10.55;;;7.70;99.90;;;;;;4114229;28;20039;-80
2023/12/13 08:08:17;;;;;;;38.47;11.43;;;7.70;99.90;;;;;;4099220;28;20117;-80
2023/12/13 08:10:18;;;;;;;33.15;11.60;;;7.90;99.90;;;;;;4099898;28;20047;-80
2023/12/13 08:12:18;;;;;;;29.67;10.50;;;8.00;99.90;;;;;;4098856;29;20161;-80
2023/12/13 08:14:19;;;;;;;29.00;10.38;;;7.70;99.90;;;;;;4099928;28;20051;-80
2023/12/13 08:16:20;;;;;;;27.38;11.15;;;7.70;99.90;;;;;;4099886;28;20535;-80
2023/12/13 08:18:21;;;;;;;30.13;10.07;;;7.70;99.90;;;;;;4099333;28;20047;-80
2023/12/13 08:20:23;;;;;;;30.60;10.77;;;8.00;99.90;;;;;;4099840;28;20405;-80
2023/12/13 08:22:24;;;;;;;24.60;11.52;;;7.70;99.90;;;;;;4098562;28;20063;-80
2023/12/13 08:24:24;;;;;;;24.10;9.95;;;8.10;99.90;;;;;;4116208;28;20416;-80
2023/12/13 08:26:25;;;;;;;29.45;11.07;;;8.00;99.90;;;;;;4116865;28;20122;-81
2023/12/13 08:28:26;;;;;;;25.45;9.45;;;7.80;99.90;;;;;;4114612;28;20043;-80
2023/12/13 08:30:27;;;;;;;26.35;11.10;;;7.90;99.90;;;;;;4116358;28;20510;-81
2023/12/13 08:32:27;;;;;;;24.52;11.02;;;8.10;99.90;;;;;;4116775;28;20043;-81
2023/12/13 08:34:28;;;;;;;32.10;11.75;;;8.00;99.90;;;;;;4115452;28;20514;-81
2023/12/13 08:36:29;;;;;;;28.40;11.00;;;7.70;99.90;;;;;;4115731;28;20051;-81
2023/12/13 08:38:29;;;;;;;29.00;11.05;;;7.70;99.90;;;;;;4115577;28;20054;-81
2023/12/13 08:40:30;;;;;;;27.58;11.45;;;8.20;99.90;;;;;;4116409;28;20126;-80
2023/12/13 08:42:31;;;;;;;30.23;10.43;;;7.70;99.90;;;;;;4115980;28;20058;-80
2023/12/13 08:44:32;;;;;;;32.80;12.77;;;7.70;99.90;;;;;;4115785;28;20121;-80
2023/12/13 08:46:33;;;;;;;29.92;11.48;;;8.00;99.90;;;;;;4118852;28;20046;-80
2023/12/13 08:48:34;;;;;;;30.55;12.23;;;7.70;99.90;;;;;;4124648;28;20078;-80
2023/12/13 08:50:34;;;;;;;26.27;11.27;;;8.00;99.90;;;;;;4120293;28;20074;-81
2023/12/13 08:52:35;;;;;;;29.33;11.55;;;7.90;99.90;;;;;;4119980;28;20054;-81
2023/12/13 08:54:36;;;;;;;32.25;11.80;;;7.70;99.90;;;;;;4121435;28;20050;-81
2023/12/13 08:56:36;;;;;;;29.75;11.32;;;7.80;99.90;;;;;;4123094;28;20078;-81
2023/12/13 08:58:37;;;;;;;35.85;11.77;;;7.70;99.90;;;;;;4121449;28;20074;-81
2023/12/13 09:00:38;;;;;;;34.35;12.23;;;8.30;99.90;;;;;;4116242;28;20723;-80
2023/12/13 09:02:38;;;;;;;28.10;10.98;;;7.80;99.90;;;;;;4116693;28;20105;-81
2023/12/13 09:04:39;;;;;;;39.45;12.43;;;8.00;99.90;;;;;;4099000;29;20413;-80
2023/12/13 09:06:41;;;;;;;34.25;11.68;;;8.00;99.90;;;;;;4116465;28;20415;-81
2023/12/13 09:08:41;;;;;;;27.60;10.98;;;8.20;99.90;;;;;;4131122;28;20133;-80
2023/12/13 09:10:42;;;;;;;35.53;11.32;;;7.80;99.90;;;;;;4116213;28;20047;-80
2023/12/13 09:12:43;;;;;;;31.92;12.73;;;7.80;99.90;;;;;;4115845;28;20058;-80
2023/12/13 09:14:43;;;;;;;40.60;12.40;;;7.90;99.90;;;;;;4115119;28;20051;-80
2023/12/13 09:16:44;;;;;;;34.67;12.18;;;8.00;99.90;;;;;;4115564;28;20085;-81
2023/12/13 09:18:44;;;;;;;30.20;11.65;;;7.90;99.90;;;;;;4115645;28;20042;-81
2023/12/13 09:20:45;;;;;;;37.28;11.82;;;7.90;99.90;;;;;;4116538;28;20411;-81
2023/12/13 09:22:46;;;;;;;36.53;12.23;;;8.50;99.90;;;;;;4115818;28;20054;-80
2023/12/13 09:24:47;;;;;;;47.63;11.57;;;8.50;99.90;;;;;;4115594;28;20113;-81
2023/12/13 09:26:48;;;;;;;31.42;12.02;;;7.90;99.90;;;;;;4116306;28;20098;-80
2023/12/13 09:28:50;;;;;;;32.67;12.13;;;8.30;99.90;;;;;;4115340;28;20140;-81
2023/12/13 09:30:51;;;;;;;30.85;11.05;;;7.90;99.90;;;;;;4115562;28;20047;-81
2023/12/13 09:32:51;;;;;;;32.05;11.05;;;7.90;99.90;;;;;;4115309;28;20054;-81
2023/12/13 09:34:52;;;;;;;33.60;11.45;;;8.30;99.90;;;;;;4113420;28;20488;-81
2023/12/13 09:36:53;;;;;;;56.65;11.35;;;8.00;99.90;;;;;;4115726;28;20081;-81
2023/12/13 09:38:54;;;;;;;36.53;11.05;;;8.10;99.90;;;;;;4115374;28;20480;-80
2023/12/13 09:40:56;;;;;;;32.70;12.35;;;8.10;99.90;;;;;;4114790;28;20052;-80
2023/12/13 09:42:56;;;;;;;31.50;11.98;;;8.00;99.90;;;;;;4115392;28;20121;-81
2023/12/13 09:45:00;;;;;;;33.40;12.20;;;8.10;99.90;;;;;;4115035;28;20047;-80
2023/12/13 09:47:02;;;;;;;40.28;12.25;;;8.10;99.90;;;;;;4118359;28;20126;-80
2023/12/13 09:49:03;;;;;;;31.15;13.40;;;8.10;99.90;;;;;;4117702;28;20043;-80
2023/12/13 09:51:09;;;;;;;32.60;11.95;;;8.30;99.90;;;;;;4117292;28;20118;-81
2023/12/13 09:53:11;;;;;;;36.85;12.43;;;8.10;99.90;;;;;;4118034;28;20170;-81
2023/12/13 09:55:14;;;;;;;31.30;11.55;;;8.20;99.90;;;;;;4118666;28;20050;-81
2023/12/13 09:57:17;;;;;;;29.05;11.23;;;8.10;99.90;;;;;;4117683;28;20081;-81
2023/12/13 09:59:18;;;;;;;33.40;11.48;;;8.10;99.90;;;;;;4118355;28;20049;-81
2023/12/13 10:01:19;;;;;;;38.75;12.60;;;8.10;99.90;;;;;;4118638;28;20047;-80
2023/12/13 10:03:20;;;;;;;33.50;12.30;;;8.70;99.90;;;;;;4118190;28;20046;-81
2023/12/13 10:05:22;;;;;;;27.13;12.20;;;8.20;99.90;;;;;;4118408;28;20046;-81
2023/12/13 10:07:23;;;;;;;32.67;12.82;;;8.20;99.90;;;;;;4118102;28;20047;-80
2023/12/13 10:09:29;;;;;;;29.67;12.15;;;8.60;99.90;;;;;;4118702;28;20101;-81
2023/12/13 10:11:30;;;;;;;36.00;12.88;;;8.30;99.90;;;;;;4118416;28;20042;-81
2023/12/13 10:13:32;;;;;;;33.30;13.45;;;8.30;99.90;;;;;;4119413;28;20404;-82
2023/12/13 10:15:33;;;;;;;38.55;13.48;;;8.80;99.90;;;;;;4118714;28;20046;-80
2023/12/13 10:17:35;;;;;;;39.03;12.63;;;8.30;99.90;;;;;;4119573;28;20053;-81
2023/12/13 10:19:35;;;;;;;38.63;12.82;;;8.30;99.90;;;;;;4119802;28;20484;-81
2023/12/13 10:21:36;;;;;;;31.58;12.65;;;8.40;99.90;;;;;;4119072;28;20134;-80
2023/12/13 10:23:38;;;;;;;40.33;13.98;;;8.30;99.90;;;;;;4119164;28;20547;-81